sensor_id;sensor_type;location;lat;lon;timestamp;P1;durP1;ratioP1;P2;durP2;ratioP2
63217;SDS011;49314;48.278;16.378;2022-08-19T00:01:02;5.00;;;3.00;;
63217;SDS011;49314;48.278;16.378;2022-08-19T00:03:28;4.47;;;2.95;;
63217;SDS011;49314;48.278;16.378;2022-08-19T00:05:53;4.17;;;2.80;;
63217;SDS011;49314;48.278;16.378;2022-08-19T00:08:18;4.30;;;3.20;;
63217;SDS011;49314;48.278;16.378;2022-08-19T00:10:43;4.37;;;3.53;;
63217;SDS011;49314;48.278;16.378;2022-08-19T00:13:10;5.40;;;3.45;;
63217;SDS011;49314;48.278;16.378;2022-08-19T00:15:36;5.33;;;3.37;;
63217;SDS011;49314;48.278;16.378;2022-08-19T00:18:01;4.60;;;3.50;;
63217;SDS011;49314;48.278;16.378;2022-08-19T00:20:27;4.43;;;3.67;;
63217;SDS011;49314;48.278;16.378;2022-08-19T00:22:52;9.02;;;3.63;;
63217;SDS011;49314;48.278;16.378;2022-08-19T00:25:17;11.47;;;3.33;;
63217;SDS011;49314;48.278;16.378;2022-08-19T00:27:43;4.97;;;3.42;;
63217;SDS011;49314;48.278;16.378;2022-08-19T00:30:08;5.63;;;3.10;;
63217;SDS011;49314;48.278;16.378;2022-08-19T00:32:35;5.05;;;3.30;;
63217;SDS011;49314;48.278;16.378;2022-08-19T00:35:00;4.97;;;3.13;;
63217;SDS011;49314;48.278;16.378;2022-08-19T00:37:26;5.75;;;3.85;;
63217;SDS011;49314;48.278;16.378;2022-08-19T00:39:52;6.55;;;3.58;;
63217;SDS011;49314;48.278;16.378;2022-08-19T00:42:18;4.63;;;3.22;;
63217;SDS011;49314;48.278;16.378;2022-08-19T00:44:43;8.45;;;3.40;;
63217;SDS011;49314;48.278;16.378;2022-08-19T00:47:08;6.05;;;2.97;;
63217;SDS011;49314;48.278;16.378;2022-08-19T00:49:35;5.25;;;2.83;;
63217;SDS011;49314;48.278;16.378;2022-08-19T00:52:03;8.40;;;4.18;;
63217;SDS011;49314;48.278;16.378;2022-08-19T00:54:29;5.65;;;2.80;;
63217;SDS011;49314;48.278;16.378;2022-08-19T00:56:56;4.72;;;3.03;;
63217;SDS011;49314;48.278;16.378;2022-08-19T00:59:22;4.30;;;2.80;;
63217;SDS011;49314;48.278;16.378;2022-08-19T01:01:47;3.53;;;2.43;;
63217;SDS011;49314;48.278;16.378;2022-08-19T01:04:12;5.03;;;3.03;;
63217;SDS011;49314;48.278;16.378;2022-08-19T01:06:38;5.70;;;3.15;;
63217;SDS011;49314;48.278;16.378;2022-08-19T01:09:04;5.60;;;2.72;;
63217;SDS011;49314;48.278;16.378;2022-08-19T01:11:30;4.15;;;2.80;;
63217;SDS011;49314;48.278;16.378;2022-08-19T01:13:56;5.43;;;2.88;;
63217;SDS011;49314;48.278;16.378;2022-08-19T01:16:22;6.32;;;2.90;;
63217;SDS011;49314;48.278;16.378;2022-08-19T01:18:49;6.40;;;2.85;;
63217;SDS011;49314;48.278;16.378;2022-08-19T01:21:26;4.20;;;3.33;;
63217;SDS011;49314;48.278;16.378;2022-08-19T01:23:52;5.00;;;3.00;;
63217;SDS011;49314;48.278;16.378;2022-08-19T01:26:19;9.25;;;4.32;;
63217;SDS011;49314;48.278;16.378;2022-08-19T01:28:46;3.75;;;3.45;;
63217;SDS011;49314;48.278;16.378;2022-08-19T01:31:16;4.25;;;2.67;;
63217;SDS011;49314;48.278;16.378;2022-08-19T01:33:41;6.25;;;3.17;;
63217;SDS011;49314;48.278;16.378;2022-08-19T01:36:08;4.10;;;3.17;;
63217;SDS011;49314;48.278;16.378;2022-08-19T01:38:35;6.60;;;3.90;;
63217;SDS011;49314;48.278;16.378;2022-08-19T01:41:01;4.95;;;2.97;;
63217;SDS011;49314;48.278;16.378;2022-08-19T01:43:26;3.92;;;2.65;;
63217;SDS011;49314;48.278;16.378;2022-08-19T01:45:51;4.30;;;3.10;;
63217;SDS011;49314;48.278;16.378;2022-08-19T01:48:17;4.40;;;2.85;;
63217;SDS011;49314;48.278;16.378;2022-08-19T01:50:42;4.67;;;3.33;;
63217;SDS011;49314;48.278;16.378;2022-08-19T01:53:09;5.93;;;3.15;;
63217;SDS011;49314;48.278;16.378;2022-08-19T01:55:36;4.47;;;2.88;;
63217;SDS011;49314;48.278;16.378;2022-08-19T01:58:02;6.63;;;3.10;;
63217;SDS011;49314;48.278;16.378;2022-08-19T02:00:28;4.88;;;2.78;;
63217;SDS011;49314;48.278;16.378;2022-08-19T02:02:54;4.45;;;2.75;;
63217;SDS011;49314;48.278;16.378;2022-08-19T02:05:19;5.53;;;3.07;;
63217;SDS011;49314;48.278;16.378;2022-08-19T02:07:46;5.47;;;3.20;;
63217;SDS011;49314;48.278;16.378;2022-08-19T02:10:13;4.88;;;3.53;;
63217;SDS011;49314;48.278;16.378;2022-08-19T02:12:39;7.80;;;3.10;;
63217;SDS011;49314;48.278;16.378;2022-08-19T02:15:04;3.38;;;3.08;;
63217;SDS011;49314;48.278;16.378;2022-08-19T02:17:31;4.60;;;3.13;;
63217;SDS011;49314;48.278;16.378;2022-08-19T02:19:56;4.63;;;2.92;;
63217;SDS011;49314;48.278;16.378;2022-08-19T02:22:22;5.10;;;3.23;;
63217;SDS011;49314;48.278;16.378;2022-08-19T02:24:47;6.35;;;3.53;;
63217;SDS011;49314;48.278;16.378;2022-08-19T02:27:13;5.90;;;2.70;;
63217;SDS011;49314;48.278;16.378;2022-08-19T02:29:38;6.50;;;2.85;;
63217;SDS011;49314;48.278;16.378;2022-08-19T02:32:04;3.83;;;2.70;;
63217;SDS011;49314;48.278;16.378;2022-08-19T02:34:29;7.05;;;4.13;;
63217;SDS011;49314;48.278;16.378;2022-08-19T02:36:54;2.72;;;2.45;;
63217;SDS011;49314;48.278;16.378;2022-08-19T02:39:20;3.80;;;3.07;;
63217;SDS011;49314;48.278;16.378;2022-08-19T02:41:45;3.30;;;2.33;;
63217;SDS011;49314;48.278;16.378;2022-08-19T02:44:10;4.13;;;2.63;;
63217;SDS011;49314;48.278;16.378;2022-08-19T02:46:35;6.77;;;2.83;;
63217;SDS011;49314;48.278;16.378;2022-08-19T02:49:03;4.03;;;3.33;;
63217;SDS011;49314;48.278;16.378;2022-08-19T02:51:30;4.88;;;2.75;;
63217;SDS011;49314;48.278;16.378;2022-08-19T02:53:56;3.67;;;3.35;;
63217;SDS011;49314;48.278;16.378;2022-08-19T02:56:22;5.65;;;3.25;;
63217;SDS011;49314;48.278;16.378;2022-08-19T02:58:47;3.55;;;3.00;;
63217;SDS011;49314;48.278;16.378;2022-08-19T03:01:20;5.07;;;3.20;;
63217;SDS011;49314;48.278;16.378;2022-08-19T03:03:46;4.65;;;2.72;;
63217;SDS011;49314;48.278;16.378;2022-08-19T03:06:12;4.30;;;3.35;;
63217;SDS011;49314;48.278;16.378;2022-08-19T03:08:38;4.15;;;2.83;;
63217;SDS011;49314;48.278;16.378;2022-08-19T03:11:04;6.93;;;3.70;;
63217;SDS011;49314;48.278;16.378;2022-08-19T03:13:29;3.88;;;2.83;;
63217;SDS011;49314;48.278;16.378;2022-08-19T03:15:54;5.93;;;2.70;;
63217;SDS011;49314;48.278;16.378;2022-08-19T03:18:20;6.45;;;3.63;;
63217;SDS011;49314;48.278;16.378;2022-08-19T03:20:47;4.87;;;3.13;;
63217;SDS011;49314;48.278;16.378;2022-08-19T03:23:13;5.07;;;3.10;;
63217;SDS011;49314;48.278;16.378;2022-08-19T03:25:40;5.55;;;3.60;;
63217;SDS011;49314;48.278;16.378;2022-08-19T03:28:08;4.75;;;3.05;;
63217;SDS011;49314;48.278;16.378;2022-08-19T03:30:34;4.63;;;3.17;;
63217;SDS011;49314;48.278;16.378;2022-08-19T03:32:59;6.10;;;4.30;;
63217;SDS011;49314;48.278;16.378;2022-08-19T03:35:24;4.67;;;4.20;;
63217;SDS011;49314;48.278;16.378;2022-08-19T03:37:49;6.20;;;3.70;;
63217;SDS011;49314;48.278;16.378;2022-08-19T03:40:15;4.75;;;3.58;;
63217;SDS011;49314;48.278;16.378;2022-08-19T03:42:41;5.50;;;4.57;;
63217;SDS011;49314;48.278;16.378;2022-08-19T03:45:07;5.05;;;4.55;;
63217;SDS011;49314;48.278;16.378;2022-08-19T03:47:32;5.05;;;3.65;;
63217;SDS011;49314;48.278;16.378;2022-08-19T03:49:58;4.20;;;3.80;;
63217;SDS011;49314;48.278;16.378;2022-08-19T03:52:23;4.87;;;4.10;;
63217;SDS011;49314;48.278;16.378;2022-08-19T03:54:48;6.67;;;4.07;;
63217;SDS011;49314;48.278;16.378;2022-08-19T03:57:13;4.63;;;4.00;;
63217;SDS011;49314;48.278;16.378;2022-08-19T03:59:38;7.07;;;4.33;;
63217;SDS011;49314;48.278;16.378;2022-08-19T04:02:06;8.55;;;4.30;;
63217;SDS011;49314;48.278;16.378;2022-08-19T04:04:34;4.28;;;3.90;;
63217;SDS011;49314;48.278;16.378;2022-08-19T04:06:59;4.20;;;3.80;;
63217;SDS011;49314;48.278;16.378;2022-08-19T04:09:24;4.78;;;4.32;;
63217;SDS011;49314;48.278;16.378;2022-08-19T04:11:51;4.68;;;4.25;;
63217;SDS011;49314;48.278;16.378;2022-08-19T04:14:19;6.65;;;5.03;;
63217;SDS011;49314;48.278;16.378;2022-08-19T04:16:46;4.45;;;4.05;;
63217;SDS011;49314;48.278;16.378;2022-08-19T04:19:11;4.97;;;4.40;;
63217;SDS011;49314;48.278;16.378;2022-08-19T04:21:37;4.60;;;4.15;;
63217;SDS011;49314;48.278;16.378;2022-08-19T04:24:02;4.33;;;3.83;;
63217;SDS011;49314;48.278;16.378;2022-08-19T04:26:29;7.30;;;4.75;;
63217;SDS011;49314;48.278;16.378;2022-08-19T04:28:57;4.57;;;4.18;;
63217;SDS011;49314;48.278;16.378;2022-08-19T04:31:23;4.60;;;4.20;;
63217;SDS011;49314;48.278;16.378;2022-08-19T04:33:51;4.85;;;3.95;;
63217;SDS011;49314;48.278;16.378;2022-08-19T04:36:17;5.35;;;4.75;;
63217;SDS011;49314;48.278;16.378;2022-08-19T04:38:45;4.65;;;4.18;;
63217;SDS011;49314;48.278;16.378;2022-08-19T04:41:10;4.97;;;4.57;;
63217;SDS011;49314;48.278;16.378;2022-08-19T04:43:54;4.63;;;4.20;;
63217;SDS011;49314;48.278;16.378;2022-08-19T04:46:19;5.33;;;4.73;;
63217;SDS011;49314;48.278;16.378;2022-08-19T04:48:45;5.10;;;4.53;;
63217;SDS011;49314;48.278;16.378;2022-08-19T04:51:11;5.90;;;4.40;;
63217;SDS011;49314;48.278;16.378;2022-08-19T04:53:38;4.55;;;4.20;;
63217;SDS011;49314;48.278;16.378;2022-08-19T04:56:05;5.45;;;4.72;;
63217;SDS011;49314;48.278;16.378;2022-08-19T04:58:32;5.50;;;5.00;;
63217;SDS011;49314;48.278;16.378;2022-08-19T05:00:57;5.55;;;4.60;;
63217;SDS011;49314;48.278;16.378;2022-08-19T05:03:25;7.00;;;4.95;;
63217;SDS011;49314;48.278;16.378;2022-08-19T05:05:50;5.18;;;4.55;;
63217;SDS011;49314;48.278;16.378;2022-08-19T05:08:16;6.13;;;4.50;;
63217;SDS011;49314;48.278;16.378;2022-08-19T05:10:48;6.50;;;4.40;;
63217;SDS011;49314;48.278;16.378;2022-08-19T05:13:14;7.65;;;4.93;;
63217;SDS011;49314;48.278;16.378;2022-08-19T05:15:40;6.35;;;4.72;;
63217;SDS011;49314;48.278;16.378;2022-08-19T05:18:05;5.75;;;5.20;;
63217;SDS011;49314;48.278;16.378;2022-08-19T05:20:49;6.03;;;5.18;;
63217;SDS011;49314;48.278;16.378;2022-08-19T05:23:33;5.88;;;5.28;;
63217;SDS011;49314;48.278;16.378;2022-08-19T05:25:58;5.47;;;4.97;;
63217;SDS011;49314;48.278;16.378;2022-08-19T05:28:23;5.60;;;4.73;;
63217;SDS011;49314;48.278;16.378;2022-08-19T05:30:48;7.63;;;5.60;;
63217;SDS011;49314;48.278;16.378;2022-08-19T05:33:15;5.68;;;5.00;;
63217;SDS011;49314;48.278;16.378;2022-08-19T05:35:41;5.43;;;4.93;;
63217;SDS011;49314;48.278;16.378;2022-08-19T05:38:07;6.63;;;5.77;;
63217;SDS011;49314;48.278;16.378;2022-08-19T05:40:36;5.82;;;5.35;;
63217;SDS011;49314;48.278;16.378;2022-08-19T05:43:03;5.80;;;5.30;;
63217;SDS011;49314;48.278;16.378;2022-08-19T05:45:30;4.97;;;4.57;;
63217;SDS011;49314;48.278;16.378;2022-08-19T05:47:55;5.30;;;4.80;;
63217;SDS011;49314;48.278;16.378;2022-08-19T05:50:20;5.80;;;5.30;;
63217;SDS011;49314;48.278;16.378;2022-08-19T05:52:46;5.85;;;5.22;;
63217;SDS011;49314;48.278;16.378;2022-08-19T05:55:11;6.67;;;5.27;;
63217;SDS011;49314;48.278;16.378;2022-08-19T05:57:37;6.22;;;5.68;;
63217;SDS011;49314;48.278;16.378;2022-08-19T06:00:03;6.63;;;6.07;;
63217;SDS011;49314;48.278;16.378;2022-08-19T06:02:33;13.65;;;7.13;;
63217;SDS011;49314;48.278;16.378;2022-08-19T06:04:58;14.97;;;6.63;;
63217;SDS011;49314;48.278;16.378;2022-08-19T06:07:23;7.73;;;6.73;;
63217;SDS011;49314;48.278;16.378;2022-08-19T06:09:49;7.50;;;6.13;;
63217;SDS011;49314;48.278;16.378;2022-08-19T06:12:14;8.20;;;7.18;;
63217;SDS011;49314;48.278;16.378;2022-08-19T06:14:39;6.80;;;6.20;;
63217;SDS011;49314;48.278;16.378;2022-08-19T06:17:06;7.05;;;6.45;;
63217;SDS011;49314;48.278;16.378;2022-08-19T06:19:31;9.10;;;6.53;;
63217;SDS011;49314;48.278;16.378;2022-08-19T06:21:57;7.20;;;6.60;;
63217;SDS011;49314;48.278;16.378;2022-08-19T06:24:24;8.10;;;5.90;;
63217;SDS011;49314;48.278;16.378;2022-08-19T06:26:50;7.28;;;6.57;;
63217;SDS011;49314;48.278;16.378;2022-08-19T06:29:18;7.57;;;6.28;;
63217;SDS011;49314;48.278;16.378;2022-08-19T06:31:45;6.72;;;6.22;;
63217;SDS011;49314;48.278;16.378;2022-08-19T06:34:10;6.80;;;5.85;;
63217;SDS011;49314;48.278;16.378;2022-08-19T06:36:37;8.23;;;5.87;;
63217;SDS011;49314;48.278;16.378;2022-08-19T06:39:13;6.68;;;6.07;;
63217;SDS011;49314;48.278;16.378;2022-08-19T06:41:43;6.57;;;6.10;;
63217;SDS011;49314;48.278;16.378;2022-08-19T06:44:09;6.43;;;5.78;;
63217;SDS011;49314;48.278;16.378;2022-08-19T06:46:35;9.23;;;6.88;;
63217;SDS011;49314;48.278;16.378;2022-08-19T06:49:00;6.80;;;6.20;;
63217;SDS011;49314;48.278;16.378;2022-08-19T06:51:26;6.23;;;5.73;;
63217;SDS011;49314;48.278;16.378;2022-08-19T06:53:52;6.53;;;5.93;;
63217;SDS011;49314;48.278;16.378;2022-08-19T06:56:19;6.40;;;5.80;;
63217;SDS011;49314;48.278;16.378;2022-08-19T06:58:45;6.63;;;6.05;;
63217;SDS011;49314;48.278;16.378;2022-08-19T07:01:11;6.22;;;5.72;;
63217;SDS011;49314;48.278;16.378;2022-08-19T07:03:37;6.70;;;5.97;;
63217;SDS011;49314;48.278;16.378;2022-08-19T07:06:04;6.38;;;5.88;;
63217;SDS011;49314;48.278;16.378;2022-08-19T07:08:29;6.60;;;5.93;;
63217;SDS011;49314;48.278;16.378;2022-08-19T07:10:54;6.10;;;5.53;;
63217;SDS011;49314;48.278;16.378;2022-08-19T07:13:20;6.63;;;6.00;;
63217;SDS011;49314;48.278;16.378;2022-08-19T07:15:46;6.20;;;5.60;;
63217;SDS011;49314;48.278;16.378;2022-08-19T07:18:11;5.95;;;5.32;;
63217;SDS011;49314;48.278;16.378;2022-08-19T07:20:37;6.30;;;5.53;;
63217;SDS011;49314;48.278;16.378;2022-08-19T07:23:03;6.75;;;6.05;;
63217;SDS011;49314;48.278;16.378;2022-08-19T07:25:29;6.43;;;5.90;;
63217;SDS011;49314;48.278;16.378;2022-08-19T07:27:54;5.75;;;5.30;;
63217;SDS011;49314;48.278;16.378;2022-08-19T07:30:19;7.03;;;5.80;;
63217;SDS011;49314;48.278;16.378;2022-08-19T07:32:45;6.15;;;5.43;;
63217;SDS011;49314;48.278;16.378;2022-08-19T07:35:10;6.07;;;4.97;;
63217;SDS011;49314;48.278;16.378;2022-08-19T07:37:35;6.43;;;5.40;;
63217;SDS011;49314;48.278;16.378;2022-08-19T07:40:03;6.60;;;4.88;;
63217;SDS011;49314;48.278;16.378;2022-08-19T07:42:28;5.97;;;5.45;;
63217;SDS011;49314;48.278;16.378;2022-08-19T07:44:54;6.20;;;5.60;;
63217;SDS011;49314;48.278;16.378;2022-08-19T07:47:19;5.57;;;5.07;;
63217;SDS011;49314;48.278;16.378;2022-08-19T07:49:44;5.67;;;5.27;;
63217;SDS011;49314;48.278;16.378;2022-08-19T07:52:10;5.17;;;4.77;;
63217;SDS011;49314;48.278;16.378;2022-08-19T07:54:36;5.50;;;5.10;;
63217;SDS011;49314;48.278;16.378;2022-08-19T07:57:02;6.07;;;5.57;;
63217;SDS011;49314;48.278;16.378;2022-08-19T07:59:27;5.72;;;5.13;;
63217;SDS011;49314;48.278;16.378;2022-08-19T08:01:53;5.63;;;5.13;;
63217;SDS011;49314;48.278;16.378;2022-08-19T08:04:19;5.07;;;4.68;;
63217;SDS011;49314;48.278;16.378;2022-08-19T08:07:03;5.25;;;4.85;;
63217;SDS011;49314;48.278;16.378;2022-08-19T08:09:47;5.38;;;4.97;;
63217;SDS011;49314;48.278;16.378;2022-08-19T08:17:04;5.00;;;4.60;;
63217;SDS011;49314;48.278;16.378;2022-08-19T08:19:30;5.20;;;4.80;;
63217;SDS011;49314;48.278;16.378;2022-08-19T08:21:57;5.93;;;4.47;;
63217;SDS011;49314;48.278;16.378;2022-08-19T08:24:22;4.85;;;4.55;;
63217;SDS011;49314;48.278;16.378;2022-08-19T08:26:48;5.60;;;5.05;;
63217;SDS011;49314;48.278;16.378;2022-08-19T08:29:13;5.00;;;4.63;;
63217;SDS011;49314;48.278;16.378;2022-08-19T08:31:40;4.68;;;4.28;;
63217;SDS011;49314;48.278;16.378;2022-08-19T08:34:06;4.68;;;4.38;;
63217;SDS011;49314;48.278;16.378;2022-08-19T08:36:32;5.10;;;4.80;;
63217;SDS011;49314;48.278;16.378;2022-08-19T08:39:00;7.15;;;5.05;;
63217;SDS011;49314;48.278;16.378;2022-08-19T08:41:31;7.22;;;5.30;;
63217;SDS011;49314;48.278;16.378;2022-08-19T08:43:58;4.85;;;4.45;;
63217;SDS011;49314;48.278;16.378;2022-08-19T08:46:25;5.88;;;5.38;;
63217;SDS011;49314;48.278;16.378;2022-08-19T08:48:53;5.82;;;5.25;;
63217;SDS011;49314;48.278;16.378;2022-08-19T08:51:24;4.53;;;4.15;;
63217;SDS011;49314;48.278;16.378;2022-08-19T08:53:51;4.28;;;3.97;;
63217;SDS011;49314;48.278;16.378;2022-08-19T08:56:17;4.88;;;4.57;;
63217;SDS011;49314;48.278;16.378;2022-08-19T08:59:26;5.23;;;4.37;;
63217;SDS011;49314;48.278;16.378;2022-08-19T09:01:34;5.75;;;4.75;;
63217;SDS011;49314;48.278;16.378;2022-08-19T09:04:02;5.18;;;4.78;;
63217;SDS011;49314;48.278;16.378;2022-08-19T09:09:03;4.68;;;4.35;;
63217;SDS011;49314;48.278;16.378;2022-08-19T09:16:31;4.97;;;4.57;;
63217;SDS011;49314;48.278;16.378;2022-08-19T09:18:58;4.60;;;4.30;;
63217;SDS011;49314;48.278;16.378;2022-08-19T09:21:25;5.32;;;4.93;;
63217;SDS011;49314;48.278;16.378;2022-08-19T09:23:52;5.10;;;4.60;;
63217;SDS011;49314;48.278;16.378;2022-08-19T09:26:19;4.32;;;3.92;;
63217;SDS011;49314;48.278;16.378;2022-08-19T09:28:45;6.00;;;5.40;;
63217;SDS011;49314;48.278;16.378;2022-08-19T09:31:11;4.78;;;4.38;;
63217;SDS011;49314;48.278;16.378;2022-08-19T09:33:37;4.82;;;4.43;;
63217;SDS011;49314;48.278;16.378;2022-08-19T09:36:07;4.32;;;4.03;;
63217;SDS011;49314;48.278;16.378;2022-08-19T09:38:33;4.97;;;4.57;;
63217;SDS011;49314;48.278;16.378;2022-08-19T09:41:09;5.85;;;4.88;;
63217;SDS011;49314;48.278;16.378;2022-08-19T09:43:37;4.72;;;4.13;;
63217;SDS011;49314;48.278;16.378;2022-08-19T09:46:03;5.33;;;4.73;;
63217;SDS011;49314;48.278;16.378;2022-08-19T09:48:30;4.90;;;4.50;;
63217;SDS011;49314;48.278;16.378;2022-08-19T09:51:01;4.40;;;4.10;;
63217;SDS011;49314;48.278;16.378;2022-08-19T09:53:27;4.85;;;4.32;;
63217;SDS011;49314;48.278;16.378;2022-08-19T09:55:54;4.78;;;4.38;;
63217;SDS011;49314;48.278;16.378;2022-08-19T09:58:20;5.57;;;5.10;;
63217;SDS011;49314;48.278;16.378;2022-08-19T10:00:45;5.22;;;4.57;;
63217;SDS011;49314;48.278;16.378;2022-08-19T10:03:11;4.45;;;4.00;;
63217;SDS011;49314;48.278;16.378;2022-08-19T10:05:36;4.73;;;4.43;;
63217;SDS011;49314;48.278;16.378;2022-08-19T10:08:14;4.63;;;4.07;;
63217;SDS011;49314;48.278;16.378;2022-08-19T10:10:40;5.13;;;4.75;;
63217;SDS011;49314;48.278;16.378;2022-08-19T10:13:08;6.35;;;5.75;;
63217;SDS011;49314;48.278;16.378;2022-08-19T10:15:34;4.90;;;4.50;;
63217;SDS011;49314;48.278;16.378;2022-08-19T10:17:59;4.22;;;3.92;;
63217;SDS011;49314;48.278;16.378;2022-08-19T10:20:25;4.50;;;4.20;;
63217;SDS011;49314;48.278;16.378;2022-08-19T10:22:50;5.27;;;4.70;;
63217;SDS011;49314;48.278;16.378;2022-08-19T10:25:15;4.57;;;4.17;;
63217;SDS011;49314;48.278;16.378;2022-08-19T10:27:41;4.57;;;4.18;;
63217;SDS011;49314;48.278;16.378;2022-08-19T10:30:07;4.50;;;4.20;;
63217;SDS011;49314;48.278;16.378;2022-08-19T10:32:33;5.47;;;5.07;;
63217;SDS011;49314;48.278;16.378;2022-08-19T10:34:58;4.55;;;4.25;;
63217;SDS011;49314;48.278;16.378;2022-08-19T10:37:24;4.10;;;3.80;;
63217;SDS011;49314;48.278;16.378;2022-08-19T10:39:49;4.87;;;4.37;;
63217;SDS011;49314;48.278;16.378;2022-08-19T10:42:15;4.07;;;3.78;;
63217;SDS011;49314;48.278;16.378;2022-08-19T10:44:41;5.00;;;4.63;;
63217;SDS011;49314;48.278;16.378;2022-08-19T10:47:06;4.95;;;4.45;;
63217;SDS011;49314;48.278;16.378;2022-08-19T10:49:32;4.93;;;4.53;;
63217;SDS011;49314;48.278;16.378;2022-08-19T10:52:17;4.43;;;4.13;;
63217;SDS011;49314;48.278;16.378;2022-08-19T10:55:01;4.43;;;4.05;;
63217;SDS011;49314;48.278;16.378;2022-08-19T10:57:45;4.38;;;3.95;;
63217;SDS011;49314;48.278;16.378;2022-08-19T11:00:10;5.50;;;4.60;;
63217;SDS011;49314;48.278;16.378;2022-08-19T11:02:36;4.38;;;4.07;;
63217;SDS011;49314;48.278;16.378;2022-08-19T11:05:01;4.87;;;4.47;;
63217;SDS011;49314;48.278;16.378;2022-08-19T11:07:26;5.10;;;4.60;;
63217;SDS011;49314;48.278;16.378;2022-08-19T11:09:51;5.73;;;4.60;;
63217;SDS011;49314;48.278;16.378;2022-08-19T11:12:17;5.87;;;4.30;;
63217;SDS011;49314;48.278;16.378;2022-08-19T11:14:42;5.00;;;4.60;;
63217;SDS011;49314;48.278;16.378;2022-08-19T11:17:07;5.63;;;4.83;;
63217;SDS011;49314;48.278;16.378;2022-08-19T11:19:33;4.40;;;4.10;;
63217;SDS011;49314;48.278;16.378;2022-08-19T11:21:58;5.10;;;4.22;;
63217;SDS011;49314;48.278;16.378;2022-08-19T11:24:26;5.47;;;4.70;;
63217;SDS011;49314;48.278;16.378;2022-08-19T11:26:53;4.85;;;4.45;;
63217;SDS011;49314;48.278;16.378;2022-08-19T11:29:22;4.68;;;4.05;;
63217;SDS011;49314;48.278;16.378;2022-08-19T11:31:50;4.63;;;4.22;;
63217;SDS011;49314;48.278;16.378;2022-08-19T11:34:18;4.27;;;3.80;;
63217;SDS011;49314;48.278;16.378;2022-08-19T11:36:44;4.25;;;3.95;;
63217;SDS011;49314;48.278;16.378;2022-08-19T11:39:11;4.82;;;4.43;;
63217;SDS011;49314;48.278;16.378;2022-08-19T11:41:36;4.65;;;4.35;;
63217;SDS011;49314;48.278;16.378;2022-08-19T11:44:01;4.53;;;4.20;;
63217;SDS011;49314;48.278;16.378;2022-08-19T11:46:28;5.10;;;4.60;;
63217;SDS011;49314;48.278;16.378;2022-08-19T11:48:54;5.25;;;4.75;;
63217;SDS011;49314;48.278;16.378;2022-08-19T11:51:21;4.63;;;4.20;;
63217;SDS011;49314;48.278;16.378;2022-08-19T11:53:46;5.00;;;3.65;;
63217;SDS011;49314;48.278;16.378;2022-08-19T11:56:12;4.65;;;4.15;;
63217;SDS011;49314;48.278;16.378;2022-08-19T11:58:37;4.43;;;4.00;;
63217;SDS011;49314;48.278;16.378;2022-08-19T12:01:07;4.45;;;4.05;;
63217;SDS011;49314;48.278;16.378;2022-08-19T12:03:32;4.55;;;4.18;;
63217;SDS011;49314;48.278;16.378;2022-08-19T12:05:58;4.20;;;3.80;;
63217;SDS011;49314;48.278;16.378;2022-08-19T12:08:27;4.63;;;4.22;;
63217;SDS011;49314;48.278;16.378;2022-08-19T12:10:52;4.17;;;3.87;;
63217;SDS011;49314;48.278;16.378;2022-08-19T12:13:18;6.80;;;4.00;;
63217;SDS011;49314;48.278;16.378;2022-08-19T12:15:45;4.47;;;4.07;;
63217;SDS011;49314;48.278;16.378;2022-08-19T12:18:11;4.72;;;4.25;;
63217;SDS011;49314;48.278;16.378;2022-08-19T12:20:37;4.70;;;4.30;;
63217;SDS011;49314;48.278;16.378;2022-08-19T12:23:03;3.97;;;3.63;;
63217;SDS011;49314;48.278;16.378;2022-08-19T12:25:28;4.63;;;4.18;;
63217;SDS011;49314;48.278;16.378;2022-08-19T12:27:54;4.30;;;3.87;;
63217;SDS011;49314;48.278;16.378;2022-08-19T12:30:19;4.07;;;3.53;;
63217;SDS011;49314;48.278;16.378;2022-08-19T12:32:45;4.07;;;3.78;;
63217;SDS011;49314;48.278;16.378;2022-08-19T12:35:10;8.20;;;3.90;;
63217;SDS011;49314;48.278;16.378;2022-08-19T12:37:36;15.52;;;5.32;;
63217;SDS011;49314;48.278;16.378;2022-08-19T12:40:01;7.18;;;4.45;;
63217;SDS011;49314;48.278;16.378;2022-08-19T12:42:27;6.90;;;4.10;;
63217;SDS011;49314;48.278;16.378;2022-08-19T12:44:53;6.88;;;4.70;;
63217;SDS011;49314;48.278;16.378;2022-08-19T12:47:18;8.85;;;4.25;;
63217;SDS011;49314;48.278;16.378;2022-08-19T12:49:44;6.47;;;4.57;;
63217;SDS011;49314;48.278;16.378;2022-08-19T12:52:10;9.43;;;4.57;;
63217;SDS011;49314;48.278;16.378;2022-08-19T12:54:35;6.07;;;3.80;;
63217;SDS011;49314;48.278;16.378;2022-08-19T12:57:04;7.32;;;4.03;;
63217;SDS011;49314;48.278;16.378;2022-08-19T12:59:30;6.72;;;3.95;;
63217;SDS011;49314;48.278;16.378;2022-08-19T13:01:55;9.77;;;4.77;;
63217;SDS011;49314;48.278;16.378;2022-08-19T13:04:20;9.53;;;4.47;;
63217;SDS011;49314;48.278;16.378;2022-08-19T13:06:45;8.00;;;3.90;;
63217;SDS011;49314;48.278;16.378;2022-08-19T13:09:11;12.40;;;5.05;;
63217;SDS011;49314;48.278;16.378;2022-08-19T13:11:36;8.37;;;4.17;;
63217;SDS011;49314;48.278;16.378;2022-08-19T13:14:02;11.13;;;5.05;;
63217;SDS011;49314;48.278;16.378;2022-08-19T13:16:28;8.98;;;4.40;;
63217;SDS011;49314;48.278;16.378;2022-08-19T13:18:53;8.10;;;4.43;;
63217;SDS011;49314;48.278;16.378;2022-08-19T13:21:20;5.05;;;4.30;;
63217;SDS011;49314;48.278;16.378;2022-08-19T13:23:45;9.27;;;4.90;;
63217;SDS011;49314;48.278;16.378;2022-08-19T13:26:11;8.90;;;5.00;;
63217;SDS011;49314;48.278;16.378;2022-08-19T13:28:37;5.97;;;4.28;;
63217;SDS011;49314;48.278;16.378;2022-08-19T13:31:21;8.18;;;4.47;;
63217;SDS011;49314;48.278;16.378;2022-08-19T13:34:05;5.85;;;3.85;;
63217;SDS011;49314;48.278;16.378;2022-08-19T13:36:31;5.68;;;3.75;;
63217;SDS011;49314;48.278;16.378;2022-08-19T13:38:56;6.45;;;3.40;;
63217;SDS011;49314;48.278;16.378;2022-08-19T13:41:22;7.20;;;4.60;;
63217;SDS011;49314;48.278;16.378;2022-08-19T13:43:47;5.45;;;4.00;;
63217;SDS011;49314;48.278;16.378;2022-08-19T13:46:14;6.15;;;4.70;;
63217;SDS011;49314;48.278;16.378;2022-08-19T13:48:39;4.90;;;3.73;;
63217;SDS011;49314;48.278;16.378;2022-08-19T13:51:05;6.30;;;3.60;;
63217;SDS011;49314;48.278;16.378;2022-08-19T13:53:31;4.25;;;3.85;;
63217;SDS011;49314;48.278;16.378;2022-08-19T13:55:56;6.07;;;3.60;;
63217;SDS011;49314;48.278;16.378;2022-08-19T13:58:22;9.20;;;4.80;;
63217;SDS011;49314;48.278;16.378;2022-08-19T14:00:47;4.90;;;3.88;;
63217;SDS011;49314;48.278;16.378;2022-08-19T14:03:13;4.75;;;3.67;;
63217;SDS011;49314;48.278;16.378;2022-08-19T14:05:38;4.20;;;3.67;;
63217;SDS011;49314;48.278;16.378;2022-08-19T14:08:03;4.67;;;4.17;;
63217;SDS011;49314;48.278;16.378;2022-08-19T14:10:29;3.53;;;3.22;;
63217;SDS011;49314;48.278;16.378;2022-08-19T14:12:57;4.25;;;3.85;;
63217;SDS011;49314;48.278;16.378;2022-08-19T14:15:23;5.78;;;4.03;;
63217;SDS011;49314;48.278;16.378;2022-08-19T14:17:49;7.13;;;3.80;;
63217;SDS011;49314;48.278;16.378;2022-08-19T14:20:14;5.90;;;4.15;;
63217;SDS011;49314;48.278;16.378;2022-08-19T14:22:40;5.97;;;3.60;;
63217;SDS011;49314;48.278;16.378;2022-08-19T14:25:07;4.78;;;3.58;;
63217;SDS011;49314;48.278;16.378;2022-08-19T14:27:33;4.80;;;3.55;;
63217;SDS011;49314;48.278;16.378;2022-08-19T14:29:58;3.78;;;3.22;;
63217;SDS011;49314;48.278;16.378;2022-08-19T14:32:24;4.75;;;3.80;;
63217;SDS011;49314;48.278;16.378;2022-08-19T14:34:51;6.88;;;4.05;;
63217;SDS011;49314;48.278;16.378;2022-08-19T14:37:17;5.20;;;3.30;;
63217;SDS011;49314;48.278;16.378;2022-08-19T14:39:42;6.17;;;3.43;;
63217;SDS011;49314;48.278;16.378;2022-08-19T14:42:08;7.23;;;3.20;;